sensor_id;sensor_type;location;lat;lon;timestamp;temperature;humidity
25248;DHT22;13191;47.472;11.214;2023-06-14T00:00:07;8.20;99.90
25248;DHT22;13191;47.472;11.214;2023-06-14T00:02:33;8.10;99.90
25248;DHT22;13191;47.472;11.214;2023-06-14T00:04:58;8.10;99.90
25248;DHT22;13191;47.472;11.214;2023-06-14T00:07:34;8.10;99.90
25248;DHT22;13191;47.472;11.214;2023-06-14T00:10:00;8.20;99.90
25248;DHT22;13191;47.472;11.214;2023-06-14T00:12:25;8.20;99.90
25248;DHT22;13191;47.472;11.214;2023-06-14T00:14:51;8.30;99.90
25248;DHT22;13191;47.472;11.214;2023-06-14T00:17:16;8.20;99.90
25248;DHT22;13191;47.472;11.214;2023-06-14T00:19:42;8.20;99.90
25248;DHT22;13191;47.472;11.214;2023-06-14T00:22:07;8.00;99.90
25248;DHT22;13191;47.472;11.214;2023-06-14T00:24:33;8.00;99.90
25248;DHT22;13191;47.472;11.214;2023-06-14T00:26:58;8.00;99.90
25248;DHT22;13191;47.472;11.214;2023-06-14T00:29:24;8.00;99.90
25248;DHT22;13191;47.472;11.214;2023-06-14T00:31:49;7.90;99.90
25248;DHT22;13191;47.472;11.214;2023-06-14T00:34:15;7.90;99.90
25248;DHT22;13191;47.472;11.214;2023-06-14T00:36:40;7.90;99.90
25248;DHT22;13191;47.472;11.214;2023-06-14T00:39:06;7.90;99.90
25248;DHT22;13191;47.472;11.214;2023-06-14T00:41:32;7.90;99.90
25248;DHT22;13191;47.472;11.214;2023-06-14T00:43:57;8.00;99.90
25248;DHT22;13191;47.472;11.214;2023-06-14T00:46:23;7.90;99.90
25248;DHT22;13191;47.472;11.214;2023-06-14T00:48:49;7.90;99.90
25248;DHT22;13191;47.472;11.214;2023-06-14T01:59:47;6.60;99.90
25248;DHT22;13191;47.472;11.214;2023-06-14T02:02:14;6.50;99.90
25248;DHT22;13191;47.472;11.214;2023-06-14T02:04:40;6.50;99.90
25248;DHT22;13191;47.472;11.214;2023-06-14T02:07:05;6.50;99.90
25248;DHT22;13191;47.472;11.214;2023-06-14T02:09:31;6.60;99.90
25248;DHT22;13191;47.472;11.214;2023-06-14T02:11:56;6.50;99.90
25248;DHT22;13191;47.472;11.214;2023-06-14T02:14:23;6.60;99.90
25248;DHT22;13191;47.472;11.214;2023-06-14T02:16:48;6.70;99.90
25248;DHT22;13191;47.472;11.214;2023-06-14T02:19:17;6.70;99.90
25248;DHT22;13191;47.472;11.214;2023-06-14T02:21:43;6.80;99.90
25248;DHT22;13191;47.472;11.214;2023-06-14T02:24:08;6.90;99.90
25248;DHT22;13191;47.472;11.214;2023-06-14T02:26:34;6.90;99.90
25248;DHT22;13191;47.472;11.214;2023-06-14T02:29:00;6.90;99.90
25248;DHT22;13191;47.472;11.214;2023-06-14T02:31:25;6.90;99.90
25248;DHT22;13191;47.472;11.214;2023-06-14T02:33:51;6.90;99.90
25248;DHT22;13191;47.472;11.214;2023-06-14T02:36:16;6.90;99.90
25248;DHT22;13191;47.472;11.214;2023-06-14T02:38:42;6.90;99.90
25248;DHT22;13191;47.472;11.214;2023-06-14T02:41:07;6.70;99.90
25248;DHT22;13191;47.472;11.214;2023-06-14T02:43:33;6.70;99.90
25248;DHT22;13191;47.472;11.214;2023-06-14T02:45:58;6.70;99.90
25248;DHT22;13191;47.472;11.214;2023-06-14T02:48:24;6.70;99.90
25248;DHT22;13191;47.472;11.214;2023-06-14T02:50:49;6.70;99.90
25248;DHT22;13191;47.472;11.214;2023-06-14T02:53:15;6.70;99.90
25248;DHT22;13191;47.472;11.214;2023-06-14T02:55:41;6.70;99.90
25248;DHT22;13191;47.472;11.214;2023-06-14T02:58:06;6.70;99.90
25248;DHT22;13191;47.472;11.214;2023-06-14T03:00:32;6.70;99.90
25248;DHT22;13191;47.472;11.214;2023-06-14T03:02:58;6.70;99.90
25248;DHT22;13191;47.472;11.214;2023-06-14T03:05:26;6.70;99.90
25248;DHT22;13191;47.472;11.214;2023-06-14T03:07:53;6.70;99.90
25248;DHT22;13191;47.472;11.214;2023-06-14T03:10:19;6.70;99.90
25248;DHT22;13191;47.472;11.214;2023-06-14T03:12:44;6.70;99.90
25248;DHT22;13191;47.472;11.214;2023-06-14T03:15:10;6.70;99.90
25248;DHT22;13191;47.472;11.214;2023-06-14T03:17:38;6.70;99.90
25248;DHT22;13191;47.472;11.214;2023-06-14T03:20:04;6.60;99.90
25248;DHT22;13191;47.472;11.214;2023-06-14T03:22:32;6.60;99.90
25248;DHT22;13191;47.472;11.214;2023-06-14T03:24:59;6.60;99.90
25248;DHT22;13191;47.472;11.214;2023-06-14T03:27:25;6.60;99.90
25248;DHT22;13191;47.472;11.214;2023-06-14T03:29:50;6.60;99.90
25248;DHT22;13191;47.472;11.214;2023-06-14T03:32:16;6.60;99.90
25248;DHT22;13191;47.472;11.214;2023-06-14T03:34:41;6.70;99.90
25248;DHT22;13191;47.472;11.214;2023-06-14T03:37:07;6.60;99.90
25248;DHT22;13191;47.472;11.214;2023-06-14T03:39:33;6.60;99.90
25248;DHT22;13191;47.472;11.214;2023-06-14T03:41:58;6.70;99.90
25248;DHT22;13191;47.472;11.214;2023-06-14T03:44:26;6.70;99.90
25248;DHT22;13191;47.472;11.214;2023-06-14T03:46:51;6.70;99.90
25248;DHT22;13191;47.472;11.214;2023-06-14T03:49:17;6.70;99.90
25248;DHT22;13191;47.472;11.214;2023-06-14T03:51:42;6.60;99.90
25248;DHT22;13191;47.472;11.214;2023-06-14T03:54:08;6.60;99.90
25248;DHT22;13191;47.472;11.214;2023-06-14T03:56:33;6.60;99.90
25248;DHT22;13191;47.472;11.214;2023-06-14T03:58:59;6.60;99.90
25248;DHT22;13191;47.472;11.214;2023-06-14T04:01:25;6.60;99.90
25248;DHT22;13191;47.472;11.214;2023-06-14T04:03:55;6.60;99.90
25248;DHT22;13191;47.472;11.214;2023-06-14T04:06:20;6.70;99.90
25248;DHT22;13191;47.472;11.214;2023-06-14T04:08:46;6.70;99.90
25248;DHT22;13191;47.472;11.214;2023-06-14T04:11:11;6.80;99.90
25248;DHT22;13191;47.472;11.214;2023-06-14T04:13:36;6.90;99.90
25248;DHT22;13191;47.472;11.214;2023-06-14T04:16:04;6.90;99.90
25248;DHT22;13191;47.472;11.214;2023-06-14T04:18:29;7.00;99.90
25248;DHT22;13191;47.472;11.214;2023-06-14T04:20:55;7.10;99.90
25248;DHT22;13191;47.472;11.214;2023-06-14T04:23:21;7.10;99.90
25248;DHT22;13191;47.472;11.214;2023-06-14T04:25:47;7.20;99.90
25248;DHT22;13191;47.472;11.214;2023-06-14T04:28:14;7.20;99.90
25248;DHT22;13191;47.472;11.214;2023-06-14T04:30:44;7.30;99.90
25248;DHT22;13191;47.472;11.214;2023-06-14T04:33:10;7.40;99.90
25248;DHT22;13191;47.472;11.214;2023-06-14T04:35:36;7.40;99.90
25248;DHT22;13191;47.472;11.214;2023-06-14T04:38:03;7.50;99.90
25248;DHT22;13191;47.472;11.214;2023-06-14T04:40:33;7.60;99.90
25248;DHT22;13191;47.472;11.214;2023-06-14T04:42:59;7.60;99.90
25248;DHT22;13191;47.472;11.214;2023-06-14T04:45:24;7.80;99.90
25248;DHT22;13191;47.472;11.214;2023-06-14T04:48:00;7.80;99.90
25248;DHT22;13191;47.472;11.214;2023-06-14T04:50:26;7.90;99.90
25248;DHT22;13191;47.472;11.214;2023-06-14T04:52:52;7.90;99.90
25248;DHT22;13191;47.472;11.214;2023-06-14T04:55:18;8.00;99.90
25248;DHT22;13191;47.472;11.214;2023-06-14T04:57:45;8.10;99.90
25248;DHT22;13191;47.472;11.214;2023-06-14T05:00:10;8.20;99.90
25248;DHT22;13191;47.472;11.214;2023-06-14T05:02:37;8.20;99.90
25248;DHT22;13191;47.472;11.214;2023-06-14T05:05:03;8.20;99.90
25248;DHT22;13191;47.472;11.214;2023-06-14T05:07:32;8.40;99.90
25248;DHT22;13191;47.472;11.214;2023-06-14T05:09:59;8.40;99.90
25248;DHT22;13191;47.472;11.214;2023-06-14T05:12:24;8.50;99.90
25248;DHT22;13191;47.472;11.214;2023-06-14T05:14:50;8.60;99.90
25248;DHT22;13191;47.472;11.214;2023-06-14T05:17:15;8.60;99.90
25248;DHT22;13191;47.472;11.214;2023-06-14T05:19:42;8.70;99.90
25248;DHT22;13191;47.472;11.214;2023-06-14T05:22:07;8.80;99.90
25248;DHT22;13191;47.472;11.214;2023-06-14T05:24:33;8.80;99.90
25248;DHT22;13191;47.472;11.214;2023-06-14T05:26:58;8.90;99.90
25248;DHT22;13191;47.472;11.214;2023-06-14T05:29:24;9.00;99.90
25248;DHT22;13191;47.472;11.214;2023-06-14T05:31:50;9.10;99.90
25248;DHT22;13191;47.472;11.214;2023-06-14T05:34:15;9.10;99.90
25248;DHT22;13191;47.472;11.214;2023-06-14T05:36:41;9.20;99.90
25248;DHT22;13191;47.472;11.214;2023-06-14T05:56:12;10.00;99.90
25248;DHT22;13191;47.472;11.214;2023-06-14T05:58:38;10.10;99.90
25248;DHT22;13191;47.472;11.214;2023-06-14T06:01:03;10.30;99.90
25248;DHT22;13191;47.472;11.214;2023-06-14T06:03:29;10.40;99.90
25248;DHT22;13191;47.472;11.214;2023-06-14T06:05:54;10.60;99.90
25248;DHT22;13191;47.472;11.214;2023-06-14T06:08:20;10.60;99.90
25248;DHT22;13191;47.472;11.214;2023-06-14T06:10:46;10.80;99.90
25248;DHT22;13191;47.472;11.214;2023-06-14T06:13:11;10.90;99.90
25248;DHT22;13191;47.472;11.214;2023-06-14T06:15:37;11.00;99.90
25248;DHT22;13191;47.472;11.214;2023-06-14T06:18:02;11.00;99.90
25248;DHT22;13191;47.472;11.214;2023-06-14T06:20:28;11.20;99.90
25248;DHT22;13191;47.472;11.214;2023-06-14T06:22:56;11.30;99.90
25248;DHT22;13191;47.472;11.214;2023-06-14T06:25:22;11.50;99.90
25248;DHT22;13191;47.472;11.214;2023-06-14T06:27:47;11.60;99.90
25248;DHT22;13191;47.472;11.214;2023-06-14T06:30:13;11.70;99.90
25248;DHT22;13191;47.472;11.214;2023-06-14T06:32:38;11.90;99.90
25248;DHT22;13191;47.472;11.214;2023-06-14T06:35:04;12.00;99.90
25248;DHT22;13191;47.472;11.214;2023-06-14T06:37:31;12.10;99.90
25248;DHT22;13191;47.472;11.214;2023-06-14T06:39:57;12.20;99.90
25248;DHT22;13191;47.472;11.214;2023-06-14T06:42:22;12.30;99.90
25248;DHT22;13191;47.472;11.214;2023-06-14T06:47:13;12.50;99.90
25248;DHT22;13191;47.472;11.214;2023-06-14T06:49:39;12.70;99.90
25248;DHT22;13191;47.472;11.214;2023-06-14T06:52:05;12.70;99.90
25248;DHT22;13191;47.472;11.214;2023-06-14T06:54:31;12.70;99.90
25248;DHT22;13191;47.472;11.214;2023-06-14T06:56:56;12.90;99.90
25248;DHT22;13191;47.472;11.214;2023-06-14T06:59:22;13.10;99.90
25248;DHT22;13191;47.472;11.214;2023-06-14T07:01:48;13.30;99.90
25248;DHT22;13191;47.472;11.214;2023-06-14T07:04:13;13.30;99.90
25248;DHT22;13191;47.472;11.214;2023-06-14T07:06:39;13.40;99.90
25248;DHT22;13191;47.472;11.214;2023-06-14T07:09:04;13.60;99.90
25248;DHT22;13191;47.472;11.214;2023-06-14T07:11:33;13.70;99.90
25248;DHT22;13191;47.472;11.214;2023-06-14T07:13:59;13.80;99.90
25248;DHT22;13191;47.472;11.214;2023-06-14T07:16:24;14.00;99.90
25248;DHT22;13191;47.472;11.214;2023-06-14T07:18:51;14.10;99.90
25248;DHT22;13191;47.472;11.214;2023-06-14T07:21:16;14.20;99.90
25248;DHT22;13191;47.472;11.214;2023-06-14T07:23:42;14.30;99.90
25248;DHT22;13191;47.472;11.214;2023-06-14T07:26:07;14.40;99.90
25248;DHT22;13191;47.472;11.214;2023-06-14T07:28:32;14.50;99.90
25248;DHT22;13191;47.472;11.214;2023-06-14T07:30:58;14.60;99.90
25248;DHT22;13191;47.472;11.214;2023-06-14T07:33:23;14.70;99.90
25248;DHT22;13191;47.472;11.214;2023-06-14T07:35:49;14.80;99.90
25248;DHT22;13191;47.472;11.214;2023-06-14T07:38:15;14.90;99.90
25248;DHT22;13191;47.472;11.214;2023-06-14T07:40:40;15.00;99.90
25248;DHT22;13191;47.472;11.214;2023-06-14T07:43:06;15.10;99.90
25248;DHT22;13191;47.472;11.214;2023-06-14T07:45:31;15.20;99.90
25248;DHT22;13191;47.472;11.214;2023-06-14T07:47:57;15.30;99.90
25248;DHT22;13191;47.472;11.214;2023-06-14T07:50:22;15.40;99.90
25248;DHT22;13191;47.472;11.214;2023-06-14T07:52:48;15.50;99.90
25248;DHT22;13191;47.472;11.214;2023-06-14T07:55:14;15.60;99.90
25248;DHT22;13191;47.472;11.214;2023-06-14T07:57:40;15.70;99.90
25248;DHT22;13191;47.472;11.214;2023-06-14T08:00:06;15.90;99.90
25248;DHT22;13191;47.472;11.214;2023-06-14T08:02:32;15.90;99.90
25248;DHT22;13191;47.472;11.214;2023-06-14T08:04:57;16.00;99.90
25248;DHT22;13191;47.472;11.214;2023-06-14T08:07:23;16.10;99.90
25248;DHT22;13191;47.472;11.214;2023-06-14T08:09:49;16.20;99.90
25248;DHT22;13191;47.472;11.214;2023-06-14T08:12:15;16.20;99.90
25248;DHT22;13191;47.472;11.214;2023-06-14T08:14:41;16.30;99.90
25248;DHT22;13191;47.472;11.214;2023-06-14T08:17:07;16.30;99.90
25248;DHT22;13191;47.472;11.214;2023-06-14T08:19:32;16.40;99.90
25248;DHT22;13191;47.472;11.214;2023-06-14T08:21:58;16.60;99.90
25248;DHT22;13191;47.472;11.214;2023-06-14T08:24:23;16.70;99.90
25248;DHT22;13191;47.472;11.214;2023-06-14T08:26:50;16.70;99.90
25248;DHT22;13191;47.472;11.214;2023-06-14T08:29:15;16.80;99.90
25248;DHT22;13191;47.472;11.214;2023-06-14T08:31:41;16.80;99.90
25248;DHT22;13191;47.472;11.214;2023-06-14T08:34:06;17.00;99.90
25248;DHT22;13191;47.472;11.214;2023-06-14T08:36:32;17.10;99.90
25248;DHT22;13191;47.472;11.214;2023-06-14T08:38:58;17.20;99.90
25248;DHT22;13191;47.472;11.214;2023-06-14T08:41:23;17.20;99.90
25248;DHT22;13191;47.472;11.214;2023-06-14T08:43:52;17.20;99.90
25248;DHT22;13191;47.472;11.214;2023-06-14T08:46:18;17.30;99.90
25248;DHT22;13191;47.472;11.214;2023-06-14T08:48:47;17.40;99.90
25248;DHT22;13191;47.472;11.214;2023-06-14T08:51:16;17.50;99.90
25248;DHT22;13191;47.472;11.214;2023-06-14T08:53:43;17.60;99.90
25248;DHT22;13191;47.472;11.214;2023-06-14T08:56:09;17.70;99.90
25248;DHT22;13191;47.472;11.214;2023-06-14T08:58:40;17.70;99.90
25248;DHT22;13191;47.472;11.214;2023-06-14T09:01:08;17.80;99.90
25248;DHT22;13191;47.472;11.214;2023-06-14T09:03:37;17.90;99.90
25248;DHT22;13191;47.472;11.214;2023-06-14T09:06:06;18.00;99.90
25248;DHT22;13191;47.472;11.214;2023-06-14T09:08:34;18.10;99.90
25248;DHT22;13191;47.472;11.214;2023-06-14T09:11:03;18.20;99.90
25248;DHT22;13191;47.472;11.214;2023-06-14T09:13:30;18.30;99.90
25248;DHT22;13191;47.472;11.214;2023-06-14T09:15:55;18.40;99.90
25248;DHT22;13191;47.472;11.214;2023-06-14T09:18:21;18.40;99.90
25248;DHT22;13191;47.472;11.214;2023-06-14T09:20:46;18.50;99.90
25248;DHT22;13191;47.472;11.214;2023-06-14T09:23:21;18.60;99.90
25248;DHT22;13191;47.472;11.214;2023-06-14T09:25:47;18.60;99.90
25248;DHT22;13191;47.472;11.214;2023-06-14T09:28:12;18.60;99.90
25248;DHT22;13191;47.472;11.214;2023-06-14T09:30:38;18.70;99.90
25248;DHT22;13191;47.472;11.214;2023-06-14T09:33:03;18.90;99.90
25248;DHT22;13191;47.472;11.214;2023-06-14T09:35:30;19.00;99.90
25248;DHT22;13191;47.472;11.214;2023-06-14T09:37:56;19.10;99.90
25248;DHT22;13191;47.472;11.214;2023-06-14T09:40:21;19.10;99.90
25248;DHT22;13191;47.472;11.214;2023-06-14T09:42:47;19.20;99.90
25248;DHT22;13191;47.472;11.214;2023-06-14T09:45:12;19.10;98.70
25248;DHT22;13191;47.472;11.214;2023-06-14T09:47:39;19.00;98.20
25248;DHT22;13191;47.472;11.214;2023-06-14T09:50:04;19.00;99.90
25248;DHT22;13191;47.472;11.214;2023-06-14T09:52:30;19.10;99.30
25248;DHT22;13191;47.472;11.214;2023-06-14T09:54:56;19.10;99.20
25248;DHT22;13191;47.472;11.214;2023-06-14T09:57:23;19.20;99.40
25248;DHT22;13191;47.472;11.214;2023-06-14T09:59:52;19.30;99.90
25248;DHT22;13191;47.472;11.214;2023-06-14T10:02:24;19.40;98.50
25248;DHT22;13191;47.472;11.214;2023-06-14T10:04:53;19.50;99.20
25248;DHT22;13191;47.472;11.214;2023-06-14T10:07:20;19.70;98.90
25248;DHT22;13191;47.472;11.214;2023-06-14T10:09:47;19.80;98.00
25248;DHT22;13191;47.472;11.214;2023-06-14T10:12:17;19.90;98.40
25248;DHT22;13191;47.472;11.214;2023-06-14T10:14:50;20.10;99.10
25248;DHT22;13191;47.472;11.214;2023-06-14T10:17:27;20.00;97.20
25248;DHT22;13191;47.472;11.214;2023-06-14T10:20:01;19.90;96.70
25248;DHT22;13191;47.472;11.214;2023-06-14T10:23:03;20.10;97.90
25248;DHT22;13191;47.472;11.214;2023-06-14T10:25:27;20.20;97.90
25248;DHT22;13191;47.472;11.214;2023-06-14T10:28:01;20.30;97.60
25248;DHT22;13191;47.472;11.214;2023-06-14T10:30:27;20.40;97.90
25248;DHT22;13191;47.472;11.214;2023-06-14T10:33:05;20.50;97.70
25248;DHT22;13191;47.472;11.214;2023-06-14T10:35:35;20.60;97.80
25248;DHT22;13191;47.472;11.214;2023-06-14T10:38:07;20.80;96.40
25248;DHT22;13191;47.472;11.214;2023-06-14T10:40:33;20.70;94.80
25248;DHT22;13191;47.472;11.214;2023-06-14T10:42:59;20.70;95.40
25248;DHT22;13191;47.472;11.214;2023-06-14T10:45:24;20.70;96.40
25248;DHT22;13191;47.472;11.214;2023-06-14T10:47:50;20.90;97.30
25248;DHT22;13191;47.472;11.214;2023-06-14T10:50:19;21.00;96.60
25248;DHT22;13191;47.472;11.214;2023-06-14T10:52:52;21.00;96.50
25248;DHT22;13191;47.472;11.214;2023-06-14T10:55:17;21.20;96.80
25248;DHT22;13191;47.472;11.214;2023-06-14T10:57:45;21.30;97.00
25248;DHT22;13191;47.472;11.214;2023-06-14T11:00:11;21.30;96.60
25248;DHT22;13191;47.472;11.214;2023-06-14T11:05:26;21.40;96.60
25248;DHT22;13191;47.472;11.214;2023-06-14T11:12:58;21.50;97.00
25248;DHT22;13191;47.472;11.214;2023-06-14T11:15:28;21.60;96.20
25248;DHT22;13191;47.472;11.214;2023-06-14T11:17:53;21.60;95.50
25248;DHT22;13191;47.472;11.214;2023-06-14T11:20:19;21.60;95.10
25248;DHT22;13191;47.472;11.214;2023-06-14T11:22:45;21.70;95.70
25248;DHT22;13191;47.472;11.214;2023-06-14T11:25:11;21.80;96.70
25248;DHT22;13191;47.472;11.214;2023-06-14T11:27:36;21.90;96.10
25248;DHT22;13191;47.472;11.214;2023-06-14T11:30:02;22.00;96.20
25248;DHT22;13191;47.472;11.214;2023-06-14T11:32:27;22.20;96.10
25248;DHT22;13191;47.472;11.214;2023-06-14T11:34:53;22.20;96.40
25248;DHT22;13191;47.472;11.214;2023-06-14T11:37:18;22.10;96.20
25248;DHT22;13191;47.472;11.214;2023-06-14T11:39:45;22.00;95.80
25248;DHT22;13191;47.472;11.214;2023-06-14T11:42:15;21.90;96.30
25248;DHT22;13191;47.472;11.214;2023-06-14T11:44:40;21.90;95.70
25248;DHT22;13191;47.472;11.214;2023-06-14T11:47:06;22.10;95.90
25248;DHT22;13191;47.472;11.214;2023-06-14T11:49:35;22.20;95.00
25248;DHT22;13191;47.472;11.214;2023-06-14T11:52:00;22.30;95.60
25248;DHT22;13191;47.472;11.214;2023-06-14T11:54:26;22.30;95.20
25248;DHT22;13191;47.472;11.214;2023-06-14T11:56:51;22.40;94.00
25248;DHT22;13191;47.472;11.214;2023-06-14T11:59:17;22.40;95.30
25248;DHT22;13191;47.472;11.214;2023-06-14T12:01:43;22.50;95.20
25248;DHT22;13191;47.472;11.214;2023-06-14T12:04:08;22.50;96.00
25248;DHT22;13191;47.472;11.214;2023-06-14T12:06:34;22.60;95.90
25248;DHT22;13191;47.472;11.214;2023-06-14T12:09:04;22.70;95.00
25248;DHT22;13191;47.472;11.214;2023-06-14T12:11:33;22.70;95.10
25248;DHT22;13191;47.472;11.214;2023-06-14T12:13:58;22.80;95.10
25248;DHT22;13191;47.472;11.214;2023-06-14T12:16:29;22.80;95.40
25248;DHT22;13191;47.472;11.214;2023-06-14T12:18:56;22.90;94.00
25248;DHT22;13191;47.472;11.214;2023-06-14T12:21:31;23.00;95.70
25248;DHT22;13191;47.472;11.214;2023-06-14T12:24:04;23.00;94.30
25248;DHT22;13191;47.472;11.214;2023-06-14T12:26:32;23.10;94.70
25248;DHT22;13191;47.472;11.214;2023-06-14T12:28:57;23.10;94.30
25248;DHT22;13191;47.472;11.214;2023-06-14T12:31:23;23.20;95.80
25248;DHT22;13191;47.472;11.214;2023-06-14T12:33:49;23.40;95.80
25248;DHT22;13191;47.472;11.214;2023-06-14T12:36:15;23.60;94.90
25248;DHT22;13191;47.472;11.214;2023-06-14T12:38:43;23.50;93.40
25248;DHT22;13191;47.472;11.214;2023-06-14T12:41:10;23.60;94.50
25248;DHT22;13191;47.472;11.214;2023-06-14T12:43:36;23.70;93.90
25248;DHT22;13191;47.472;11.214;2023-06-14T12:46:05;23.70;93.60
25248;DHT22;13191;47.472;11.214;2023-06-14T12:48:31;23.70;94.10
25248;DHT22;13191;47.472;11.214;2023-06-14T12:50:57;23.60;95.00
25248;DHT22;13191;47.472;11.214;2023-06-14T12:53:23;23.40;94.30
25248;DHT22;13191;47.472;11.214;2023-06-14T12:55:48;23.20;94.00
25248;DHT22;13191;47.472;11.214;2023-06-14T12:58:14;23.10;95.20
25248;DHT22;13191;47.472;11.214;2023-06-14T13:00:40;23.10;95.20
25248;DHT22;13191;47.472;11.214;2023-06-14T13:03:05;23.20;93.80
25248;DHT22;13191;47.472;11.214;2023-06-14T13:05:31;23.20;94.30
25248;DHT22;13191;47.472;11.214;2023-06-14T13:07:58;23.10;94.40
25248;DHT22;13191;47.472;11.214;2023-06-14T13:10:24;23.20;94.50
25248;DHT22;13191;47.472;11.214;2023-06-14T13:12:51;23.20;94.00
25248;DHT22;13191;47.472;11.214;2023-06-14T13:15:16;23.10;94.60
25248;DHT22;13191;47.472;11.214;2023-06-14T13:17:42;23.10;94.40
25248;DHT22;13191;47.472;11.214;2023-06-14T13:20:09;23.00;94.60
25248;DHT22;13191;47.472;11.214;2023-06-14T13:22:34;23.00;94.10
25248;DHT22;13191;47.472;11.214;2023-06-14T13:25:00;23.00;94.50
25248;DHT22;13191;47.472;11.214;2023-06-14T13:27:26;22.90;95.50
25248;DHT22;13191;47.472;11.214;2023-06-14T13:29:52;22.90;93.90
25248;DHT22;13191;47.472;11.214;2023-06-14T13:32:17;22.90;94.50
25248;DHT22;13191;47.472;11.214;2023-06-14T13:34:43;22.80;94.30
25248;DHT22;13191;47.472;11.214;2023-06-14T13:37:08;22.70;94.50
25248;DHT22;13191;47.472;11.214;2023-06-14T13:39:34;22.60;93.90
25248;DHT22;13191;47.472;11.214;2023-06-14T13:42:02;22.50;94.80
25248;DHT22;13191;47.472;11.214;2023-06-14T13:44:28;22.50;95.10
25248;DHT22;13191;47.472;11.214;2023-06-14T13:46:53;22.40;94.30
25248;DHT22;13191;47.472;11.214;2023-06-14T13:49:19;22.40;94.90
25248;DHT22;13191;47.472;11.214;2023-06-14T13:51:44;22.30;94.70
25248;DHT22;13191;47.472;11.214;2023-06-14T13:54:12;22.30;94.70
25248;DHT22;13191;47.472;11.214;2023-06-14T13:56:39;22.40;94.50
25248;DHT22;13191;47.472;11.214;2023-06-14T13:59:05;22.50;95.10
25248;DHT22;13191;47.472;11.214;2023-06-14T14:01:30;22.60;95.50
25248;DHT22;13191;47.472;11.214;2023-06-14T14:03:56;22.60;95.60
25248;DHT22;13191;47.472;11.214;2023-06-14T14:06:21;22.60;95.40
25248;DHT22;13191;47.472;11.214;2023-06-14T14:08:47;22.60;95.20
25248;DHT22;13191;47.472;11.214;2023-06-14T14:11:13;22.70;94.90
25248;DHT22;13191;47.472;11.214;2023-06-14T14:13:38;22.70;94.90
25248;DHT22;13191;47.472;11.214;2023-06-14T14:16:05;22.70;94.60
25248;DHT22;13191;47.472;11.214;2023-06-14T14:18:31;22.70;94.50
25248;DHT22;13191;47.472;11.214;2023-06-14T14:20:58;22.80;94.20
25248;DHT22;13191;47.472;11.214;2023-06-14T14:23:23;22.90;93.80
25248;DHT22;13191;47.472;11.214;2023-06-14T14:25:49;22.90;94.60
25248;DHT22;13191;47.472;11.214;2023-06-14T14:28:15;22.90;93.20
25248;DHT22;13191;47.472;11.214;2023-06-14T14:30:46;22.90;92.40
25248;DHT22;13191;47.472;11.214;2023-06-14T14:33:15;22.80;92.70
25248;DHT22;13191;47.472;11.214;2023-06-14T14:35:43;22.80;94.00
25248;DHT22;13191;47.472;11.214;2023-06-14T14:38:09;22.70;93.90
25248;DHT22;13191;47.472;11.214;2023-06-14T14:40:35;22.70;94.70
25248;DHT22;13191;47.472;11.214;2023-06-14T14:43:00;22.60;94.40
25248;DHT22;13191;47.472;11.214;2023-06-14T14:45:26;22.50;94.50
25248;DHT22;13191;47.472;11.214;2023-06-14T14:47:53;22.60;94.60
25248;DHT22;13191;47.472;11.214;2023-06-14T14:50:18;22.60;94.40
25248;DHT22;13191;47.472;11.214;2023-06-14T14:52:44;22.60;94.20
25248;DHT22;13191;47.472;11.214;2023-06-14T14:55:10;22.60;93.80
25248;DHT22;13191;47.472;11.214;2023-06-14T14:57:36;22.70;94.30
25248;DHT22;13191;47.472;11.214;2023-06-14T15:00:02;23.00;94.50
25248;DHT22;13191;47.472;11.214;2023-06-14T15:02:29;23.10;94.40
25248;DHT22;13191;47.472;11.214;2023-06-14T15:04:54;23.10;94.00
25248;DHT22;13191;47.472;11.214;2023-06-14T15:07:22;23.10;93.40
25248;DHT22;13191;47.472;11.214;2023-06-14T15:09:48;23.30;93.50
25248;DHT22;13191;47.472;11.214;2023-06-14T15:12:16;23.30;93.60
25248;DHT22;13191;47.472;11.214;2023-06-14T15:14:41;23.30;93.40
25248;DHT22;13191;47.472;11.214;2023-06-14T15:17:07;23.20;93.90
25248;DHT22;13191;47.472;11.214;2023-06-14T15:19:32;23.10;93.50
25248;DHT22;13191;47.472;11.214;2023-06-14T15:21:59;23.10;93.90
25248;DHT22;13191;47.472;11.214;2023-06-14T15:24:25;23.00;93.80
25248;DHT22;13191;47.472;11.214;2023-06-14T15:26:50;22.80;94.20
25248;DHT22;13191;47.472;11.214;2023-06-14T15:29:16;22.80;94.00
25248;DHT22;13191;47.472;11.214;2023-06-14T15:31:41;22.80;94.30
25248;DHT22;13191;47.472;11.214;2023-06-14T15:34:06;23.10;94.50
25248;DHT22;13191;47.472;11.214;2023-06-14T15:36:32;23.30;94.60
25248;DHT22;13191;47.472;11.214;2023-06-14T15:38:58;23.50;94.20
25248;DHT22;13191;47.472;11.214;2023-06-14T15:41:23;23.70;93.70
25248;DHT22;13191;47.472;11.214;2023-06-14T15:43:49;23.80;93.30
25248;DHT22;13191;47.472;11.214;2023-06-14T15:46:14;23.70;93.50
25248;DHT22;13191;47.472;11.214;2023-06-14T15:48:40;23.60;93.50
25248;DHT22;13191;47.472;11.214;2023-06-14T15:51:05;23.60;94.00
25248;DHT22;13191;47.472;11.214;2023-06-14T15:53:31;23.70;93.80
25248;DHT22;13191;47.472;11.214;2023-06-14T15:55:56;23.80;94.00
25248;DHT22;13191;47.472;11.214;2023-06-14T15:58:21;23.70;93.80
25248;DHT22;13191;47.472;11.214;2023-06-14T16:00:47;23.60;93.70
25248;DHT22;13191;47.472;11.214;2023-06-14T16:03:13;23.60;93.30
25248;DHT22;13191;47.472;11.214;2023-06-14T16:05:38;23.50;93.80
25248;DHT22;13191;47.472;11.214;2023-06-14T16:08:04;23.30;94.70
25248;DHT22;13191;47.472;11.214;2023-06-14T16:10:29;23.30;94.40
25248;DHT22;13191;47.472;11.214;2023-06-14T16:12:56;23.30;93.90
25248;DHT22;13191;47.472;11.214;2023-06-14T16:15:21;23.30;94.00
25248;DHT22;13191;47.472;11.214;2023-06-14T16:17:47;23.20;93.50
25248;DHT22;13191;47.472;11.214;2023-06-14T16:20:12;23.30;93.80
25248;DHT22;13191;47.472;11.214;2023-06-14T16:22:38;23.40;94.00
25248;DHT22;13191;47.472;11.214;2023-06-14T16:25:03;23.40;93.80
25248;DHT22;13191;47.472;11.214;2023-06-14T16:27:30;23.30;93.50
25248;DHT22;13191;47.472;11.214;2023-06-14T16:29:55;23.30;93.40
25248;DHT22;13191;47.472;11.214;2023-06-14T16:32:20;23.20;93.40
25248;DHT22;13191;47.472;11.214;2023-06-14T16:34:46;23.20;93.70
25248;DHT22;13191;47.472;11.214;2023-06-14T16:37:11;23.30;93.70
25248;DHT22;13191;47.472;11.214;2023-06-14T16:39:37;23.40;93.50
25248;DHT22;13191;47.472;11.214;2023-06-14T16:42:02;23.40;93.60
25248;DHT22;13191;47.472;11.214;2023-06-14T16:44:28;23.50;93.60
25248;DHT22;13191;47.472;11.214;2023-06-14T16:46:53;23.70;93.80
25248;DHT22;13191;47.472;11.214;2023-06-14T16:49:21;23.70;92.80